sensor_id;sensor_type;location;lat;lon;timestamp;pressure;altitude;pressure_sealevel;temperature;humidity
39295;BME280;52361;52.100;5.248;2023-05-22T00:02:51;101526.0;;;17.71;100.0
39295;BME280;52361;52.100;5.248;2023-05-22T00:04:27;101528.0;;;17.66;100.0
39295;BME280;52361;52.100;5.248;2023-05-22T00:06:03;101525.0;;;17.7;100.0
39295;BME280;52361;52.100;5.248;2023-05-22T00:09:16;101518.0;;;17.75;100.0
39295;BME280;52361;52.100;5.248;2023-05-22T00:10:52;101510.0;;;17.61;100.0
39295;BME280;52361;52.100;5.248;2023-05-22T00:12:29;101510.0;;;17.66;100.0
39295;BME280;52361;52.100;5.248;2023-05-22T00:14:05;101501.0;;;17.66;100.0
39295;BME280;52361;52.100;5.248;2023-05-22T00:17:17;101498.0;;;17.77;100.0
39295;BME280;52361;52.100;5.248;2023-05-22T00:18:53;101484.0;;;17.84;100.0
39295;BME280;52361;52.100;5.248;2023-05-22T00:20:30;101478.0;;;17.84;100.0
39295;BME280;52361;52.100;5.248;2023-05-22T00:23:44;101470.0;;;17.96;100.0
39295;BME280;52361;52.100;5.248;2023-05-22T00:25:20;101463.0;;;18.02;100.0
39295;BME280;52361;52.100;5.248;2023-05-22T00:26:56;101457.0;;;17.87;100.0
39295;BME280;52361;52.100;5.248;2023-05-22T00:30:10;101456.0;;;17.88;100.0
39295;BME280;52361;52.100;5.248;2023-05-22T00:31:46;101449.0;;;17.88;100.0
39295;BME280;52361;52.100;5.248;2023-05-22T00:33:22;101447.0;;;17.82;100.0
39295;BME280;52361;52.100;5.248;2023-05-22T00:36:34;101444.0;;;17.89;100.0
39295;BME280;52361;52.100;5.248;2023-05-22T00:38:26;101444.0;;;17.77;100.0
39295;BME280;52361;52.100;5.248;2023-05-22T00:40:04;101446.0;;;17.91;100.0
39295;BME280;52361;52.100;5.248;2023-05-22T00:41:41;101443.0;;;18.02;100.0
39295;BME280;52361;52.100;5.248;2023-05-22T00:44:53;101440.0;;;18.04;100.0
39295;BME280;52361;52.100;5.248;2023-05-22T00:46:30;101445.0;;;18.12;100.0
39295;BME280;52361;52.100;5.248;2023-05-22T00:48:08;101446.0;;;18.07;100.0
39295;BME280;52361;52.100;5.248;2023-05-22T00:49:44;101440.0;;;18.11;100.0
39295;BME280;52361;52.100;5.248;2023-05-22T00:53:00;101440.0;;;18.05;100.0
39295;BME280;52361;52.100;5.248;2023-05-22T00:54:36;101447.0;;;18.11;100.0
39295;BME280;52361;52.100;5.248;2023-05-22T00:56:13;101447.0;;;18.04;100.0
39295;BME280;52361;52.100;5.248;2023-05-22T00:59:27;101446.0;;;18.03;100.0
39295;BME280;52361;52.100;5.248;2023-05-22T01:01:04;101448.0;;;18.14;100.0
39295;BME280;52361;52.100;5.248;2023-05-22T01:02:40;101444.0;;;18.13;100.0
39295;BME280;52361;52.100;5.248;2023-05-22T01:04:17;101443.0;;;18.25;100.0
39295;BME280;52361;52.100;5.248;2023-05-22T01:07:30;101441.0;;;18.11;100.0
39295;BME280;52361;52.100;5.248;2023-05-22T01:09:07;101440.0;;;18.09;100.0
39295;BME280;52361;52.100;5.248;2023-05-22T01:10:43;101437.0;;;17.84;100.0
39295;BME280;52361;52.100;5.248;2023-05-22T01:14:15;101432.0;;;17.86;100.0
39295;BME280;52361;52.100;5.248;2023-05-22T01:16:09;101427.0;;;17.95;100.0
39295;BME280;52361;52.100;5.248;2023-05-22T01:17:54;101423.0;;;17.95;100.0
39295;BME280;52361;52.100;5.248;2023-05-22T01:19:51;101426.0;;;17.97;100.0
39295;BME280;52361;52.100;5.248;2023-05-22T01:21:38;101418.0;;;18.02;100.0
39295;BME280;52361;52.100;5.248;2023-05-22T01:24:53;101419.0;;;18.02;100.0
39295;BME280;52361;52.100;5.248;2023-05-22T01:26:32;101414.0;;;18.05;100.0
39295;BME280;52361;52.100;5.248;2023-05-22T01:28:34;101416.0;;;17.93;100.0
39295;BME280;52361;52.100;5.248;2023-05-22T01:30:34;101417.0;;;17.96;100.0
39295;BME280;52361;52.100;5.248;2023-05-22T01:32:20;101416.0;;;17.95;100.0
39295;BME280;52361;52.100;5.248;2023-05-22T01:34:01;101423.0;;;17.84;100.0
39295;BME280;52361;52.100;5.248;2023-05-22T01:37:16;101428.0;;;17.75;100.0
39295;BME280;52361;52.100;5.248;2023-05-22T01:38:55;101427.0;;;17.64;100.0
39295;BME280;52361;52.100;5.248;2023-05-22T01:40:32;101430.0;;;17.61;100.0
39295;BME280;52361;52.100;5.248;2023-05-22T01:42:09;101426.0;;;17.54;100.0
39295;BME280;52361;52.100;5.248;2023-05-22T01:45:21;101425.0;;;17.46;100.0
39295;BME280;52361;52.100;5.248;2023-05-22T01:46:57;101427.0;;;17.45;100.0
39295;BME280;52361;52.100;5.248;2023-05-22T01:48:34;101430.0;;;17.52;100.0
39295;BME280;52361;52.100;5.248;2023-05-22T01:51:51;101430.0;;;17.37;100.0
39295;BME280;52361;52.100;5.248;2023-05-22T01:53:32;101424.0;;;17.36;100.0
39295;BME280;52361;52.100;5.248;2023-05-22T01:55:17;101423.0;;;17.32;100.0
39295;BME280;52361;52.100;5.248;2023-05-22T01:57:00;101418.0;;;17.37;100.0
39295;BME280;52361;52.100;5.248;2023-05-22T01:58:48;101413.0;;;17.34;100.0
39295;BME280;52361;52.100;5.248;2023-05-22T02:02:19;101415.0;;;17.32;100.0
39295;BME280;52361;52.100;5.248;2023-05-22T02:03:57;101412.0;;;17.32;100.0
39295;BME280;52361;52.100;5.248;2023-05-22T02:05:37;101408.0;;;17.28;100.0
39295;BME280;52361;52.100;5.248;2023-05-22T02:07:16;101405.0;;;17.36;100.0
39295;BME280;52361;52.100;5.248;2023-05-22T02:10:32;101405.0;;;17.41;100.0
39295;BME280;52361;52.100;5.248;2023-05-22T02:12:11;101402.0;;;17.34;100.0
39295;BME280;52361;52.100;5.248;2023-05-22T02:13:48;101400.0;;;17.32;100.0
39295;BME280;52361;52.100;5.248;2023-05-22T02:15:24;101397.0;;;17.34;100.0
39295;BME280;52361;52.100;5.248;2023-05-22T02:18:36;101400.0;;;17.28;100.0
39295;BME280;52361;52.100;5.248;2023-05-22T02:20:14;101400.0;;;17.25;100.0
39295;BME280;52361;52.100;5.248;2023-05-22T02:21:51;101401.0;;;17.27;100.0
39295;BME280;52361;52.100;5.248;2023-05-22T02:25:04;101395.0;;;17.16;100.0
39295;BME280;52361;52.100;5.248;2023-05-22T02:26:41;101386.0;;;17.22;100.0
39295;BME280;52361;52.100;5.248;2023-05-22T02:28:17;101384.0;;;17.22;100.0
39295;BME280;52361;52.100;5.248;2023-05-22T02:31:30;101378.0;;;17.09;100.0
39295;BME280;52361;52.100;5.248;2023-05-22T02:33:06;101380.0;;;17.11;100.0
39295;BME280;52361;52.100;5.248;2023-05-22T02:34:42;101377.0;;;17.11;100.0
39295;BME280;52361;52.100;5.248;2023-05-22T02:37:55;101381.0;;;17.02;100.0
39295;BME280;52361;52.100;5.248;2023-05-22T02:39:31;101375.0;;;17.0;100.0
39295;BME280;52361;52.100;5.248;2023-05-22T02:41:07;101376.0;;;17.0;100.0
39295;BME280;52361;52.100;5.248;2023-05-22T02:42:43;101377.0;;;17.11;100.0
39295;BME280;52361;52.100;5.248;2023-05-22T02:45:55;101381.0;;;17.0;100.0
39295;BME280;52361;52.100;5.248;2023-05-22T02:47:32;101378.0;;;17.02;100.0
39295;BME280;52361;52.100;5.248;2023-05-22T02:49:08;101376.0;;;17.07;100.0
39295;BME280;52361;52.100;5.248;2023-05-22T02:52:20;101374.0;;;16.96;100.0
39295;BME280;52361;52.100;5.248;2023-05-22T02:53:56;101368.0;;;16.93;100.0
39295;BME280;52361;52.100;5.248;2023-05-22T02:55:33;101366.0;;;16.93;100.0
39295;BME280;52361;52.100;5.248;2023-05-22T02:58:45;101367.0;;;16.87;100.0
39295;BME280;52361;52.100;5.248;2023-05-22T03:00:21;101368.0;;;16.82;100.0
39295;BME280;52361;52.100;5.248;2023-05-22T03:01:57;101365.0;;;16.79;100.0
39295;BME280;52361;52.100;5.248;2023-05-22T03:03:34;101371.0;;;16.87;100.0
39295;BME280;52361;52.100;5.248;2023-05-22T03:06:46;101373.0;;;16.7;100.0
39295;BME280;52361;52.100;5.248;2023-05-22T03:08:22;101371.0;;;16.71;100.0
39295;BME280;52361;52.100;5.248;2023-05-22T03:09:58;101375.0;;;16.7;100.0
39295;BME280;52361;52.100;5.248;2023-05-22T03:13:11;101370.0;;;16.63;100.0
39295;BME280;52361;52.100;5.248;2023-05-22T03:14:47;101371.0;;;16.55;100.0
39295;BME280;52361;52.100;5.248;2023-05-22T03:16:23;101372.0;;;16.53;100.0
39295;BME280;52361;52.100;5.248;2023-05-22T03:21:11;101372.0;;;16.52;100.0
39295;BME280;52361;52.100;5.248;2023-05-22T03:22:47;101374.0;;;16.45;100.0
39295;BME280;52361;52.100;5.248;2023-05-22T03:25:59;101370.0;;;16.47;100.0
39295;BME280;52361;52.100;5.248;2023-05-22T03:27:37;101370.0;;;16.5;100.0
39295;BME280;52361;52.100;5.248;2023-05-22T03:29:14;101368.0;;;16.5;100.0
39295;BME280;52361;52.100;5.248;2023-05-22T03:30:51;101372.0;;;16.43;100.0
39295;BME280;52361;52.100;5.248;2023-05-22T03:34:03;101372.0;;;16.4;100.0
39295;BME280;52361;52.100;5.248;2023-05-22T03:35:39;101370.0;;;16.34;100.0
39295;BME280;52361;52.100;5.248;2023-05-22T03:37:16;101366.0;;;16.29;100.0
39295;BME280;52361;52.100;5.248;2023-05-22T03:40:29;101365.0;;;16.3;100.0
39295;BME280;52361;52.100;5.248;2023-05-22T03:42:05;101360.0;;;16.27;100.0
39295;BME280;52361;52.100;5.248;2023-05-22T03:43:41;101356.0;;;16.28;100.0
39295;BME280;52361;52.100;5.248;2023-05-22T03:46:53;101355.0;;;16.25;100.0
39295;BME280;52361;52.100;5.248;2023-05-22T03:48:30;101355.0;;;16.21;100.0
39295;BME280;52361;52.100;5.248;2023-05-22T03:50:09;101357.0;;;16.2;100.0
39295;BME280;52361;52.100;5.248;2023-05-22T03:51:45;101360.0;;;16.21;100.0
39295;BME280;52361;52.100;5.248;2023-05-22T03:54:57;101362.0;;;16.2;100.0
39295;BME280;52361;52.100;5.248;2023-05-22T03:56:34;101362.0;;;16.18;100.0
39295;BME280;52361;52.100;5.248;2023-05-22T03:58:10;101363.0;;;16.2;100.0
39295;BME280;52361;52.100;5.248;2023-05-22T04:01:22;101357.0;;;16.25;100.0
39295;BME280;52361;52.100;5.248;2023-05-22T04:02:58;101357.0;;;16.34;100.0
39295;BME280;52361;52.100;5.248;2023-05-22T04:04:34;101357.0;;;16.28;100.0
39295;BME280;52361;52.100;5.248;2023-05-22T04:07:47;101360.0;;;16.27;100.0
39295;BME280;52361;52.100;5.248;2023-05-22T04:09:25;101362.0;;;16.28;100.0
39295;BME280;52361;52.100;5.248;2023-05-22T04:11:01;101359.0;;;16.27;100.0
39295;BME280;52361;52.100;5.248;2023-05-22T04:12:37;101355.0;;;16.22;100.0
39295;BME280;52361;52.100;5.248;2023-05-22T04:15:50;101357.0;;;16.09;100.0
39295;BME280;52361;52.100;5.248;2023-05-22T04:17:30;101362.0;;;16.07;100.0
39295;BME280;52361;52.100;5.248;2023-05-22T04:19:07;101363.0;;;16.05;100.0
39295;BME280;52361;52.100;5.248;2023-05-22T04:22:19;101364.0;;;15.97;100.0
39295;BME280;52361;52.100;5.248;2023-05-22T04:23:55;101366.0;;;15.99;100.0
39295;BME280;52361;52.100;5.248;2023-05-22T04:25:32;101374.0;;;16.04;100.0
39295;BME280;52361;52.100;5.248;2023-05-22T04:30:20;101377.0;;;16.09;100.0
39295;BME280;52361;52.100;5.248;2023-05-22T04:31:56;101377.0;;;16.09;100.0
39295;BME280;52361;52.100;5.248;2023-05-22T04:33:32;101385.0;;;16.2;100.0
39295;BME280;52361;52.100;5.248;2023-05-22T04:36:46;101387.0;;;16.3;100.0
39295;BME280;52361;52.100;5.248;2023-05-22T04:38:22;101396.0;;;16.29;100.0
39295;BME280;52361;52.100;5.248;2023-05-22T04:39:58;101405.0;;;16.39;100.0
39295;BME280;52361;52.100;5.248;2023-05-22T04:43:10;101413.0;;;16.48;100.0
39295;BME280;52361;52.100;5.248;2023-05-22T04:44:47;101416.0;;;16.34;100.0
39295;BME280;52361;52.100;5.248;2023-05-22T04:46:23;101425.0;;;16.5;100.0
39295;BME280;52361;52.100;5.248;2023-05-22T04:49:36;101421.0;;;16.59;100.0
39295;BME280;52361;52.100;5.248;2023-05-22T04:51:12;101420.0;;;16.63;100.0
39295;BME280;52361;52.100;5.248;2023-05-22T04:52:48;101412.0;;;16.81;100.0
39295;BME280;52361;52.100;5.248;2023-05-22T04:54:25;101417.0;;;16.81;100.0
39295;BME280;52361;52.100;5.248;2023-05-22T04:57:37;101415.0;;;16.62;100.0
39295;BME280;52361;52.100;5.248;2023-05-22T04:59:13;101413.0;;;16.7;100.0
39295;BME280;52361;52.100;5.248;2023-05-22T05:00:49;101412.0;;;16.75;100.0
39295;BME280;52361;52.100;5.248;2023-05-22T05:04:02;101424.0;;;16.65;100.0
39295;BME280;52361;52.100;5.248;2023-05-22T05:05:38;101424.0;;;16.7;100.0
39295;BME280;52361;52.100;5.248;2023-05-22T05:07:14;101421.0;;;16.7;100.0
39295;BME280;52361;52.100;5.248;2023-05-22T05:10:26;101426.0;;;16.73;100.0
39295;BME280;52361;52.100;5.248;2023-05-22T05:12:02;101425.0;;;16.72;100.0
39295;BME280;52361;52.100;5.248;2023-05-22T05:13:39;101422.0;;;16.84;100.0
39295;BME280;52361;52.100;5.248;2023-05-22T05:16:51;101423.0;;;16.78;100.0
39295;BME280;52361;52.100;5.248;2023-05-22T05:18:27;101431.0;;;16.71;100.0
39295;BME280;52361;52.100;5.248;2023-05-22T05:20:05;101428.0;;;16.77;100.0
39295;BME280;52361;52.100;5.248;2023-05-22T05:21:43;101421.0;;;16.79;100.0
39295;BME280;52361;52.100;5.248;2023-05-22T05:24:55;101426.0;;;16.82;100.0
39295;BME280;52361;52.100;5.248;2023-05-22T05:26:31;101430.0;;;17.09;100.0
39295;BME280;52361;52.100;5.248;2023-05-22T05:28:07;101425.0;;;17.14;100.0
39295;BME280;52361;52.100;5.248;2023-05-22T05:31:20;101420.0;;;17.27;100.0
39295;BME280;52361;52.100;5.248;2023-05-22T05:32:56;101420.0;;;17.37;100.0
39295;BME280;52361;52.100;5.248;2023-05-22T05:34:32;101423.0;;;17.61;100.0
39295;BME280;52361;52.100;5.248;2023-05-22T05:37:44;101421.0;;;17.68;100.0
39295;BME280;52361;52.100;5.248;2023-05-22T05:39:21;101421.0;;;17.68;100.0
39295;BME280;52361;52.100;5.248;2023-05-22T05:40:57;101422.0;;;17.82;100.0
39295;BME280;52361;52.100;5.248;2023-05-22T05:42:33;101427.0;;;17.87;100.0
39295;BME280;52361;52.100;5.248;2023-05-22T05:45:45;101422.0;;;18.09;100.0
39295;BME280;52361;52.100;5.248;2023-05-22T05:47:21;101415.0;;;18.22;100.0
39295;BME280;52361;52.100;5.248;2023-05-22T05:48:58;101411.0;;;18.27;100.0
39295;BME280;52361;52.100;5.248;2023-05-22T05:52:10;101414.0;;;18.45;100.0
39295;BME280;52361;52.100;5.248;2023-05-22T05:53:46;101408.0;;;18.64;100.0
39295;BME280;52361;52.100;5.248;2023-05-22T05:55:23;101408.0;;;18.7;100.0
39295;BME280;52361;52.100;5.248;2023-05-22T05:58:34;101412.0;;;18.77;100.0
39295;BME280;52361;52.100;5.248;2023-05-22T06:00:11;101422.0;;;18.89;100.0
39295;BME280;52361;52.100;5.248;2023-05-22T06:01:47;101424.0;;;19.11;100.0
39295;BME280;52361;52.100;5.248;2023-05-22T06:05:00;101422.0;;;19.25;100.0
39295;BME280;52361;52.100;5.248;2023-05-22T06:06:36;101419.0;;;19.22;100.0
39295;BME280;52361;52.100;5.248;2023-05-22T06:08:12;101419.0;;;19.34;100.0
39295;BME280;52361;52.100;5.248;2023-05-22T06:09:48;101425.0;;;19.41;100.0
39295;BME280;52361;52.100;5.248;2023-05-22T06:13:01;101421.0;;;19.61;100.0
39295;BME280;52361;52.100;5.248;2023-05-22T06:14:37;101418.0;;;19.55;100.0
39295;BME280;52361;52.100;5.248;2023-05-22T06:16:13;101414.0;;;19.62;100.0
39295;BME280;52361;52.100;5.248;2023-05-22T06:19:25;101414.0;;;19.64;100.0
39295;BME280;52361;52.100;5.248;2023-05-22T06:21:02;101421.0;;;19.79;100.0
39295;BME280;52361;52.100;5.248;2023-05-22T06:22:38;101427.0;;;19.89;100.0
39295;BME280;52361;52.100;5.248;2023-05-22T06:25:50;101423.0;;;20.09;100.0
39295;BME280;52361;52.100;5.248;2023-05-22T06:27:26;101426.0;;;20.29;100.0
39295;BME280;52361;52.100;5.248;2023-05-22T06:29:02;101431.0;;;20.32;100.0
39295;BME280;52361;52.100;5.248;2023-05-22T06:30:39;101426.0;;;20.37;100.0
39295;BME280;52361;52.100;5.248;2023-05-22T06:33:51;101426.0;;;20.53;100.0
39295;BME280;52361;52.100;5.248;2023-05-22T06:35:27;101431.0;;;20.36;100.0
39295;BME280;52361;52.100;5.248;2023-05-22T06:37:04;101430.0;;;20.58;100.0
39295;BME280;52361;52.100;5.248;2023-05-22T06:40:16;101435.0;;;20.51;100.0
39295;BME280;52361;52.100;5.248;2023-05-22T06:41:52;101433.0;;;20.89;100.0
39295;BME280;52361;52.100;5.248;2023-05-22T06:43:29;101439.0;;;20.68;100.0
39295;BME280;52361;52.100;5.248;2023-05-22T06:46:43;101436.0;;;21.09;100.0
39295;BME280;52361;52.100;5.248;2023-05-22T06:48:19;101436.0;;;21.1;100.0
39295;BME280;52361;52.100;5.248;2023-05-22T06:49:55;101443.0;;;21.02;100.0
39295;BME280;52361;52.100;5.248;2023-05-22T06:53:08;101445.0;;;21.05;100.0
39295;BME280;52361;52.100;5.248;2023-05-22T06:56:20;101446.0;;;21.11;100.0
39295;BME280;52361;52.100;5.248;2023-05-22T06:57:56;101452.0;;;21.41;100.0
39295;BME280;52361;52.100;5.248;2023-05-22T07:01:09;101450.0;;;21.55;100.0
39295;BME280;52361;52.100;5.248;2023-05-22T07:02:45;101451.0;;;21.8;100.0
39295;BME280;52361;52.100;5.248;2023-05-22T07:04:21;101455.0;;;21.84;100.0
39295;BME280;52361;52.100;5.248;2023-05-22T07:07:34;101460.0;;;21.83;100.0
39295;BME280;52361;52.100;5.248;2023-05-22T07:09:10;101456.0;;;21.93;100.0
39295;BME280;52361;52.100;5.248;2023-05-22T07:10:46;101457.0;;;22.08;100.0
39295;BME280;52361;52.100;5.248;2023-05-22T07:13:59;101459.0;;;22.12;100.0
39295;BME280;52361;52.100;5.248;2023-05-22T07:15:35;101461.0;;;22.18;100.0
39295;BME280;52361;52.100;5.248;2023-05-22T07:17:11;101460.0;;;22.4;100.0
39295;BME280;52361;52.100;5.248;2023-05-22T07:18:48;101462.0;;;22.57;100.0
39295;BME280;52361;52.100;5.248;2023-05-22T07:22:00;101464.0;;;22.55;100.0
39295;BME280;52361;52.100;5.248;2023-05-22T07:23:36;101466.0;;;22.7;100.0
39295;BME280;52361;52.100;5.248;2023-05-22T07:25:12;101464.0;;;22.69;100.0
39295;BME280;52361;52.100;5.248;2023-05-22T07:28:25;101468.0;;;22.84;100.0
39295;BME280;52361;52.100;5.248;2023-05-22T07:31:37;101466.0;;;23.34;100.0
39295;BME280;52361;52.100;5.248;2023-05-22T07:34:49;101475.0;;;23.64;100.0
39295;BME280;52361;52.100;5.248;2023-05-22T07:36:26;101473.0;;;23.69;100.0
39295;BME280;52361;52.100;5.248;2023-05-22T07:38:02;101471.0;;;23.86;100.0
39295;BME280;52361;52.100;5.248;2023-05-22T07:41:14;101466.0;;;23.74;100.0
39295;BME280;52361;52.100;5.248;2023-05-22T07:42:50;101469.0;;;23.82;100.0
39295;BME280;52361;52.100;5.248;2023-05-22T07:44:26;101467.0;;;23.95;100.0
39295;BME280;52361;52.100;5.248;2023-05-22T07:46:03;101466.0;;;23.88;98.54
39295;BME280;52361;52.100;5.248;2023-05-22T07:49:15;101462.0;;;23.89;100.0
39295;BME280;52361;52.100;5.248;2023-05-22T07:50:51;101462.0;;;23.98;100.0
39295;BME280;52361;52.100;5.248;2023-05-22T07:52:27;101465.0;;;24.26;100.0
39295;BME280;52361;52.100;5.248;2023-05-22T07:55:40;101465.0;;;24.5;100.0
39295;BME280;52361;52.100;5.248;2023-05-22T07:57:16;101464.0;;;24.47;100.0
39295;BME280;52361;52.100;5.248;2023-05-22T07:58:52;101462.0;;;24.52;97.66
39295;BME280;52361;52.100;5.248;2023-05-22T08:02:05;101460.0;;;24.76;95.31
39295;BME280;52361;52.100;5.248;2023-05-22T08:03:41;101467.0;;;24.6;98.71
39295;BME280;52361;52.100;5.248;2023-05-22T08:05:17;101466.0;;;24.76;97.1
39295;BME280;52361;52.100;5.248;2023-05-22T08:06:53;101465.0;;;24.94;97.43
39295;BME280;52361;52.100;5.248;2023-05-22T08:10:12;101471.0;;;25.13;93.11
39295;BME280;52361;52.100;5.248;2023-05-22T08:11:48;101467.0;;;25.06;95.2
39295;BME280;52361;52.100;5.248;2023-05-22T08:13:25;101473.0;;;24.96;97.13
39295;BME280;52361;52.100;5.248;2023-05-22T08:16:37;101478.0;;;25.01;94.98
39295;BME280;52361;52.100;5.248;2023-05-22T08:18:13;101480.0;;;25.16;99.33
39295;BME280;52361;52.100;5.248;2023-05-22T08:19:49;101477.0;;;25.16;96.09
39295;BME280;52361;52.100;5.248;2023-05-22T08:23:02;101481.0;;;25.4;97.82
39295;BME280;52361;52.100;5.248;2023-05-22T08:24:38;101475.0;;;25.69;96.56
39295;BME280;52361;52.100;5.248;2023-05-22T08:26:14;101476.0;;;25.98;89.23
39295;BME280;52361;52.100;5.248;2023-05-22T08:27:50;101474.0;;;25.78;93.77
39295;BME280;52361;52.100;5.248;2023-05-22T08:31:04;101472.0;;;26.1;92.48
39295;BME280;52361;52.100;5.248;2023-05-22T08:32:40;101471.0;;;25.77;88.64
39295;BME280;52361;52.100;5.248;2023-05-22T08:34:16;101465.0;;;25.66;90.27
39295;BME280;52361;52.100;5.248;2023-05-22T08:37:28;101465.0;;;25.84;94.15
39295;BME280;52361;52.100;5.248;2023-05-22T08:39:05;101459.0;;;25.94;86.91
39295;BME280;52361;52.100;5.248;2023-05-22T08:40:43;101462.0;;;25.65;91.25
39295;BME280;52361;52.100;5.248;2023-05-22T08:43:59;101460.0;;;25.64;92.44
39295;BME280;52361;52.100;5.248;2023-05-22T08:45:35;101458.0;;;25.91;94.27
39295;BME280;52361;52.100;5.248;2023-05-22T08:47:12;101462.0;;;26.45;85.14
39295;BME280;52361;52.100;5.248;2023-05-22T08:48:48;101465.0;;;26.85;80.17
39295;BME280;52361;52.100;5.248;2023-05-22T08:52:06;101464.0;;;26.88;77.45
39295;BME280;52361;52.100;5.248;2023-05-22T08:53:47;101460.0;;;26.94;74.58
39295;BME280;52361;52.100;5.248;2023-05-22T08:55:27;101455.0;;;27.05;75.12
39295;BME280;52361;52.100;5.248;2023-05-22T08:58:40;101456.0;;;26.93;74.72
39295;BME280;52361;52.100;5.248;2023-05-22T09:00:19;101456.0;;;27.18;75.06
39295;BME280;52361;52.100;5.248;2023-05-22T09:01:56;101455.0;;;27.09;73.72
39295;BME280;52361;52.100;5.248;2023-05-22T09:03:34;101453.0;;;27.16;72.66
39295;BME280;52361;52.100;5.248;2023-05-22T09:06:47;101452.0;;;27.26;75.41
39295;BME280;52361;52.100;5.248;2023-05-22T09:08:23;101461.0;;;27.23;72.72
39295;BME280;52361;52.100;5.248;2023-05-22T09:09:59;101460.0;;;27.36;72.08
39295;BME280;52361;52.100;5.248;2023-05-22T09:13:23;101460.0;;;27.6;72.02
39295;BME280;52361;52.100;5.248;2023-05-22T09:15:07;101457.0;;;27.78;70.05
39295;BME280;52361;52.100;5.248;2023-05-22T09:16:44;101455.0;;;27.76;71.24
39295;BME280;52361;52.100;5.248;2023-05-22T09:18:24;101451.0;;;27.83;68.94
39295;BME280;52361;52.100;5.248;2023-05-22T09:21:40;101450.0;;;27.91;69.91
39295;BME280;52361;52.100;5.248;2023-05-22T09:23:15;101448.0;;;28.09;70.48
39295;BME280;52361;52.100;5.248;2023-05-22T09:24:52;101447.0;;;28.0;70.03
39295;BME280;52361;52.100;5.248;2023-05-22T09:26:28;101448.0;;;27.86;69.08
39295;BME280;52361;52.100;5.248;2023-05-22T09:29:48;101441.0;;;27.91;65.39
39295;BME280;52361;52.100;5.248;2023-05-22T09:31:27;101440.0;;;28.12;65.88
39295;BME280;52361;52.100;5.248;2023-05-22T09:33:04;101443.0;;;28.24;65.73
39295;BME280;52361;52.100;5.248;2023-05-22T09:36:16;101442.0;;;28.25;67.41
39295;BME280;52361;52.100;5.248;2023-05-22T09:37:53;101438.0;;;28.14;66.6
39295;BME280;52361;52.100;5.248;2023-05-22T09:39:37;101440.0;;;28.35;68.37
39295;BME280;52361;52.100;5.248;2023-05-22T09:41:19;101437.0;;;28.33;67.16
39295;BME280;52361;52.100;5.248;2023-05-22T09:44:31;101439.0;;;28.42;66.13
39295;BME280;52361;52.100;5.248;2023-05-22T09:46:07;101439.0;;;28.5;64.37
39295;BME280;52361;52.100;5.248;2023-05-22T09:47:47;101439.0;;;28.44;67.14
39295;BME280;52361;52.100;5.248;2023-05-22T09:49:24;101438.0;;;28.63;67.58
39295;BME280;52361;52.100;5.248;2023-05-22T09:52:37;101437.0;;;28.76;64.81
39295;BME280;52361;52.100;5.248;2023-05-22T09:54:14;101439.0;;;29.09;67.37
39295;BME280;52361;52.100;5.248;2023-05-22T09:55:51;101438.0;;;29.07;64.02
39295;BME280;52361;52.100;5.248;2023-05-22T09:59:08;101435.0;;;29.0;65.87
39295;BME280;52361;52.100;5.248;2023-05-22T10:00:47;101434.0;;;28.9;65.64
39295;BME280;52361;52.100;5.248;2023-05-22T10:02:26;101434.0;;;28.73;60.76
39295;BME280;52361;52.100;5.248;2023-05-22T10:04:03;101432.0;;;28.89;60.42
39295;BME280;52361;52.100;5.248;2023-05-22T10:07:29;101434.0;;;28.84;58.63
39295;BME280;52361;52.100;5.248;2023-05-22T10:09:14;101430.0;;;28.69;60.0
39295;BME280;52361;52.100;5.248;2023-05-22T10:10:52;101428.0;;;28.88;61.68
39295;BME280;52361;52.100;5.248;2023-05-22T10:12:31;101431.0;;;28.89;59.51
39295;BME280;52361;52.100;5.248;2023-05-22T10:15:46;101423.0;;;28.68;61.14
39295;BME280;52361;52.100;5.248;2023-05-22T10:17:23;101428.0;;;28.49;61.78
39295;BME280;52361;52.100;5.248;2023-05-22T10:19:00;101430.0;;;28.22;64.97
39295;BME280;52361;52.100;5.248;2023-05-22T10:22:13;101430.0;;;27.78;65.17
39295;BME280;52361;52.100;5.248;2023-05-22T10:23:51;101428.0;;;27.92;66.64
39295;BME280;52361;52.100;5.248;2023-05-22T10:25:30;101430.0;;;27.99;66.11
39295;BME280;52361;52.100;5.248;2023-05-22T10:27:06;101434.0;;;28.25;64.94
39295;BME280;52361;52.100;5.248;2023-05-22T10:30:31;101430.0;;;28.35;62.07
39295;BME280;52361;52.100;5.248;2023-05-22T10:33:58;101426.0;;;28.54;62.82
39295;BME280;52361;52.100;5.248;2023-05-22T10:35:40;101430.0;;;28.15;62.01
39295;BME280;52361;52.100;5.248;2023-05-22T10:39:32;101426.0;;;28.07;66.06
39295;BME280;52361;52.100;5.248;2023-05-22T10:41:16;101428.0;;;28.24;62.57
39295;BME280;52361;52.100;5.248;2023-05-22T10:42:57;101423.0;;;28.07;63.08
39295;BME280;52361;52.100;5.248;2023-05-22T10:44:34;101419.0;;;27.87;63.2
39295;BME280;52361;52.100;5.248;2023-05-22T10:46:11;101422.0;;;27.67;63.12
39295;BME280;52361;52.100;5.248;2023-05-22T10:49:23;101422.0;;;27.6;63.55
39295;BME280;52361;52.100;5.248;2023-05-22T10:50:59;101421.0;;;27.5;62.98
39295;BME280;52361;52.100;5.248;2023-05-22T10:52:37;101421.0;;;27.49;64.02
39295;BME280;52361;52.100;5.248;2023-05-22T10:54:13;101423.0;;;27.21;70.17
39295;BME280;52361;52.100;5.248;2023-05-22T10:57:31;101419.0;;;27.28;65.66
39295;BME280;52361;52.100;5.248;2023-05-22T10:59:07;101427.0;;;27.26;67.89
39295;BME280;52361;52.100;5.248;2023-05-22T11:00:44;101420.0;;;27.1;68.72
39295;BME280;52361;52.100;5.248;2023-05-22T11:04:09;101417.0;;;27.34;67.52
39295;BME280;52361;52.100;5.248;2023-05-22T11:05:51;101419.0;;;27.68;66.5
39295;BME280;52361;52.100;5.248;2023-05-22T11:07:37;101419.0;;;28.15;65.8
39295;BME280;52361;52.100;5.248;2023-05-22T11:09:17;101414.0;;;28.39;63.0
39295;BME280;52361;52.100;5.248;2023-05-22T11:12:32;101416.0;;;28.14;62.48
39295;BME280;52361;52.100;5.248;2023-05-22T11:14:10;101416.0;;;27.93;65.83
39295;BME280;52361;52.100;5.248;2023-05-22T11:15:47;101411.0;;;27.6;66.66
39295;BME280;52361;52.100;5.248;2023-05-22T11:17:25;101410.0;;;27.84;66.8